sensor_id;sensor_type;location;lat;lon;timestamp;P1;durP1;ratioP1;P2;durP2;ratioP2
26359;SDS011;14063;41.426;13.854;2022-11-20T00:01:12;0.00;;;0.00;;
26359;SDS011;14063;41.426;13.854;2022-11-20T00:03:47;0.00;;;0.00;;
26359;SDS011;14063;41.426;13.854;2022-11-20T00:06:17;0.00;;;0.00;;
26359;SDS011;14063;41.426;13.854;2022-11-20T00:08:57;0.00;;;0.00;;
26359;SDS011;14063;41.426;13.854;2022-11-20T00:11:25;0.00;;;0.00;;
26359;SDS011;14063;41.426;13.854;2022-11-20T00:13:55;0.00;;;0.00;;
26359;SDS011;14063;41.426;13.854;2022-11-20T00:19:25;0.00;;;0.00;;
26359;SDS011;14063;41.426;13.854;2022-11-20T00:21:51;0.00;;;0.00;;
26359;SDS011;14063;41.426;13.854;2022-11-20T00:24:20;0.00;;;0.00;;
26359;SDS011;14063;41.426;13.854;2022-11-20T00:26:47;0.00;;;0.00;;
26359;SDS011;14063;41.426;13.854;2022-11-20T00:29:13;0.00;;;0.00;;
26359;SDS011;14063;41.426;13.854;2022-11-20T00:31:46;0.00;;;0.00;;
26359;SDS011;14063;41.426;13.854;2022-11-20T00:34:12;0.00;;;0.00;;
26359;SDS011;14063;41.426;13.854;2022-11-20T00:36:38;0.00;;;0.00;;
26359;SDS011;14063;41.426;13.854;2022-11-20T00:39:05;0.00;;;0.00;;
26359;SDS011;14063;41.426;13.854;2022-11-20T00:41:31;0.00;;;0.00;;
26359;SDS011;14063;41.426;13.854;2022-11-20T00:43:57;0.00;;;0.00;;
26359;SDS011;14063;41.426;13.854;2022-11-20T00:46:24;0.00;;;0.00;;
26359;SDS011;14063;41.426;13.854;2022-11-20T00:48:54;0.00;;;0.00;;
26359;SDS011;14063;41.426;13.854;2022-11-20T00:51:25;0.00;;;0.00;;
26359;SDS011;14063;41.426;13.854;2022-11-20T00:53:51;0.00;;;0.00;;
26359;SDS011;14063;41.426;13.854;2022-11-20T00:56:18;0.00;;;0.00;;
26359;SDS011;14063;41.426;13.854;2022-11-20T00:58:45;0.00;;;0.00;;
26359;SDS011;14063;41.426;13.854;2022-11-20T01:06:22;0.00;;;0.00;;
26359;SDS011;14063;41.426;13.854;2022-11-20T01:08:55;0.00;;;0.00;;
26359;SDS011;14063;41.426;13.854;2022-11-20T01:11:32;0.00;;;0.00;;
26359;SDS011;14063;41.426;13.854;2022-11-20T01:13:59;0.00;;;0.00;;
26359;SDS011;14063;41.426;13.854;2022-11-20T01:16:33;0.00;;;0.00;;
26359;SDS011;14063;41.426;13.854;2022-11-20T01:19:02;0.00;;;0.00;;
26359;SDS011;14063;41.426;13.854;2022-11-20T01:21:31;0.00;;;0.00;;
26359;SDS011;14063;41.426;13.854;2022-11-20T01:23:58;0.00;;;0.00;;
26359;SDS011;14063;41.426;13.854;2022-11-20T01:26:26;0.00;;;0.00;;
26359;SDS011;14063;41.426;13.854;2022-11-20T01:28:53;0.00;;;0.00;;
26359;SDS011;14063;41.426;13.854;2022-11-20T01:31:24;0.00;;;0.00;;
26359;SDS011;14063;41.426;13.854;2022-11-20T01:33:51;0.00;;;0.00;;
26359;SDS011;14063;41.426;13.854;2022-11-20T01:36:19;0.00;;;0.00;;
26359;SDS011;14063;41.426;13.854;2022-11-20T01:41:32;0.00;;;0.00;;
26359;SDS011;14063;41.426;13.854;2022-11-20T01:44:18;0.00;;;0.00;;
26359;SDS011;14063;41.426;13.854;2022-11-20T01:52:07;0.00;;;0.00;;
26359;SDS011;14063;41.426;13.854;2022-11-20T01:54:47;0.00;;;0.00;;
26359;SDS011;14063;41.426;13.854;2022-11-20T01:57:15;0.00;;;0.00;;
26359;SDS011;14063;41.426;13.854;2022-11-20T01:59:43;0.00;;;0.00;;
26359;SDS011;14063;41.426;13.854;2022-11-20T02:02:11;0.00;;;0.00;;
26359;SDS011;14063;41.426;13.854;2022-11-20T02:04:37;0.00;;;0.00;;
26359;SDS011;14063;41.426;13.854;2022-11-20T02:07:04;0.00;;;0.00;;
26359;SDS011;14063;41.426;13.854;2022-11-20T02:09:31;0.00;;;0.00;;
26359;SDS011;14063;41.426;13.854;2022-11-20T02:11:58;0.00;;;0.00;;
26359;SDS011;14063;41.426;13.854;2022-11-20T02:14:25;0.00;;;0.00;;
26359;SDS011;14063;41.426;13.854;2022-11-20T02:16:51;0.00;;;0.00;;
26359;SDS011;14063;41.426;13.854;2022-11-20T02:21:49;0.00;;;0.00;;
26359;SDS011;14063;41.426;13.854;2022-11-20T02:24:18;0.00;;;0.00;;
26359;SDS011;14063;41.426;13.854;2022-11-20T02:26:56;0.00;;;0.00;;
26359;SDS011;14063;41.426;13.854;2022-11-20T02:29:24;0.00;;;0.00;;
26359;SDS011;14063;41.426;13.854;2022-11-20T02:31:52;0.00;;;0.00;;
26359;SDS011;14063;41.426;13.854;2022-11-20T02:34:20;0.00;;;0.00;;
26359;SDS011;14063;41.426;13.854;2022-11-20T02:36:46;0.00;;;0.00;;
26359;SDS011;14063;41.426;13.854;2022-11-20T02:39:12;0.00;;;0.00;;
26359;SDS011;14063;41.426;13.854;2022-11-20T02:41:41;0.00;;;0.00;;
26359;SDS011;14063;41.426;13.854;2022-11-20T02:44:08;0.00;;;0.00;;
26359;SDS011;14063;41.426;13.854;2022-11-20T02:46:34;0.00;;;0.00;;
26359;SDS011;14063;41.426;13.854;2022-11-20T02:49:01;0.00;;;0.00;;
26359;SDS011;14063;41.426;13.854;2022-11-20T02:51:28;0.00;;;0.00;;
26359;SDS011;14063;41.426;13.854;2022-11-20T02:53:54;0.00;;;0.00;;
26359;SDS011;14063;41.426;13.854;2022-11-20T02:56:21;0.00;;;0.00;;
26359;SDS011;14063;41.426;13.854;2022-11-20T03:01:50;0.00;;;0.00;;
26359;SDS011;14063;41.426;13.854;2022-11-20T03:04:16;0.00;;;0.00;;
26359;SDS011;14063;41.426;13.854;2022-11-20T03:06:43;0.00;;;0.00;;
26359;SDS011;14063;41.426;13.854;2022-11-20T03:09:09;0.00;;;0.00;;
26359;SDS011;14063;41.426;13.854;2022-11-20T03:11:43;0.00;;;0.00;;
26359;SDS011;14063;41.426;13.854;2022-11-20T03:14:09;0.00;;;0.00;;
26359;SDS011;14063;41.426;13.854;2022-11-20T03:16:36;0.00;;;0.00;;
26359;SDS011;14063;41.426;13.854;2022-11-20T03:19:02;0.00;;;0.00;;
26359;SDS011;14063;41.426;13.854;2022-11-20T03:21:28;0.00;;;0.00;;
26359;SDS011;14063;41.426;13.854;2022-11-20T03:23:54;0.00;;;0.00;;
26359;SDS011;14063;41.426;13.854;2022-11-20T03:26:22;0.00;;;0.00;;
26359;SDS011;14063;41.426;13.854;2022-11-20T03:28:49;0.00;;;0.00;;
26359;SDS011;14063;41.426;13.854;2022-11-20T03:31:17;0.00;;;0.00;;
26359;SDS011;14063;41.426;13.854;2022-11-20T03:33:43;0.00;;;0.00;;
26359;SDS011;14063;41.426;13.854;2022-11-20T03:36:13;0.00;;;0.00;;
26359;SDS011;14063;41.426;13.854;2022-11-20T03:38:40;0.00;;;0.00;;
26359;SDS011;14063;41.426;13.854;2022-11-20T03:41:08;0.00;;;0.00;;
26359;SDS011;14063;41.426;13.854;2022-11-20T03:43:34;0.00;;;0.00;;
26359;SDS011;14063;41.426;13.854;2022-11-20T03:46:01;0.00;;;0.00;;
26359;SDS011;14063;41.426;13.854;2022-11-20T03:48:27;0.00;;;0.00;;
26359;SDS011;14063;41.426;13.854;2022-11-20T03:51:06;0.00;;;0.00;;
26359;SDS011;14063;41.426;13.854;2022-11-20T03:53:32;0.00;;;0.00;;
26359;SDS011;14063;41.426;13.854;2022-11-20T03:55:59;0.00;;;0.00;;
26359;SDS011;14063;41.426;13.854;2022-11-20T03:58:25;0.00;;;0.00;;
26359;SDS011;14063;41.426;13.854;2022-11-20T04:03:21;0.00;;;0.00;;
26359;SDS011;14063;41.426;13.854;2022-11-20T04:05:48;0.00;;;0.00;;
26359;SDS011;14063;41.426;13.854;2022-11-20T04:08:14;0.00;;;0.00;;
26359;SDS011;14063;41.426;13.854;2022-11-20T04:10:40;0.00;;;0.00;;
26359;SDS011;14063;41.426;13.854;2022-11-20T04:13:06;0.00;;;0.00;;
26359;SDS011;14063;41.426;13.854;2022-11-20T04:15:32;0.00;;;0.00;;
26359;SDS011;14063;41.426;13.854;2022-11-20T04:23:53;0.00;;;0.00;;
26359;SDS011;14063;41.426;13.854;2022-11-20T04:26:20;0.00;;;0.00;;
26359;SDS011;14063;41.426;13.854;2022-11-20T04:31:50;0.00;;;0.00;;
26359;SDS011;14063;41.426;13.854;2022-11-20T04:34:17;0.00;;;0.00;;
26359;SDS011;14063;41.426;13.854;2022-11-20T04:36:43;0.00;;;0.00;;
26359;SDS011;14063;41.426;13.854;2022-11-20T04:44:46;0.00;;;0.00;;
26359;SDS011;14063;41.426;13.854;2022-11-20T04:47:13;0.00;;;0.00;;
26359;SDS011;14063;41.426;13.854;2022-11-20T04:52:10;0.00;;;0.00;;
26359;SDS011;14063;41.426;13.854;2022-11-20T04:54:36;0.00;;;0.00;;
26359;SDS011;14063;41.426;13.854;2022-11-20T04:57:20;0.00;;;0.00;;
26359;SDS011;14063;41.426;13.854;2022-11-20T05:02:38;0.00;;;0.00;;
26359;SDS011;14063;41.426;13.854;2022-11-20T05:05:05;0.00;;;0.00;;
26359;SDS011;14063;41.426;13.854;2022-11-20T05:13:30;0.05;;;0.00;;
26359;SDS011;14063;41.426;13.854;2022-11-20T05:16:00;0.00;;;0.00;;
26359;SDS011;14063;41.426;13.854;2022-11-20T05:18:27;0.00;;;0.00;;
26359;SDS011;14063;41.426;13.854;2022-11-20T05:20:57;0.00;;;0.00;;
26359;SDS011;14063;41.426;13.854;2022-11-20T05:26:27;0.00;;;0.00;;
26359;SDS011;14063;41.426;13.854;2022-11-20T05:28:53;0.00;;;0.00;;
26359;SDS011;14063;41.426;13.854;2022-11-20T05:34:20;0.00;;;0.00;;
26359;SDS011;14063;41.426;13.854;2022-11-20T05:36:46;0.00;;;0.00;;
26359;SDS011;14063;41.426;13.854;2022-11-20T05:42:08;0.00;;;0.00;;
26359;SDS011;14063;41.426;13.854;2022-11-20T05:44:53;0.00;;;0.00;;
26359;SDS011;14063;41.426;13.854;2022-11-20T05:50:23;0.00;;;0.00;;
26359;SDS011;14063;41.426;13.854;2022-11-20T05:52:49;0.00;;;0.00;;
26359;SDS011;14063;41.426;13.854;2022-11-20T05:55:15;0.00;;;0.00;;
26359;SDS011;14063;41.426;13.854;2022-11-20T05:57:41;0.00;;;0.00;;
26359;SDS011;14063;41.426;13.854;2022-11-20T06:00:08;0.00;;;0.00;;
26359;SDS011;14063;41.426;13.854;2022-11-20T06:02:34;0.00;;;0.00;;
26359;SDS011;14063;41.426;13.854;2022-11-20T06:07:32;0.00;;;0.00;;
26359;SDS011;14063;41.426;13.854;2022-11-20T06:10:05;0.00;;;0.00;;
26359;SDS011;14063;41.426;13.854;2022-11-20T06:12:32;0.00;;;0.00;;
26359;SDS011;14063;41.426;13.854;2022-11-20T06:14:58;0.00;;;0.00;;
26359;SDS011;14063;41.426;13.854;2022-11-20T06:17:25;0.00;;;0.00;;
26359;SDS011;14063;41.426;13.854;2022-11-20T06:19:51;0.00;;;0.00;;
26359;SDS011;14063;41.426;13.854;2022-11-20T06:22:17;0.00;;;0.00;;
26359;SDS011;14063;41.426;13.854;2022-11-20T06:24:43;0.00;;;0.00;;
26359;SDS011;14063;41.426;13.854;2022-11-20T06:30:13;0.00;;;0.00;;
26359;SDS011;14063;41.426;13.854;2022-11-20T06:32:39;0.00;;;0.00;;
26359;SDS011;14063;41.426;13.854;2022-11-20T06:35:18;0.00;;;0.00;;
26359;SDS011;14063;41.426;13.854;2022-11-20T06:37:44;0.00;;;0.00;;
26359;SDS011;14063;41.426;13.854;2022-11-20T06:40:11;0.00;;;0.00;;
26359;SDS011;14063;41.426;13.854;2022-11-20T06:42:37;0.00;;;0.00;;
26359;SDS011;14063;41.426;13.854;2022-11-20T06:45:03;0.00;;;0.00;;
26359;SDS011;14063;41.426;13.854;2022-11-20T06:47:30;0.00;;;0.00;;
26359;SDS011;14063;41.426;13.854;2022-11-20T06:49:56;0.00;;;0.00;;
26359;SDS011;14063;41.426;13.854;2022-11-20T06:55:02;0.00;;;0.00;;
26359;SDS011;14063;41.426;13.854;2022-11-20T06:57:28;0.00;;;0.00;;
26359;SDS011;14063;41.426;13.854;2022-11-20T06:59:54;0.00;;;0.00;;
26359;SDS011;14063;41.426;13.854;2022-11-20T07:05:24;0.00;;;0.00;;
26359;SDS011;14063;41.426;13.854;2022-11-20T07:07:50;0.00;;;0.00;;
26359;SDS011;14063;41.426;13.854;2022-11-20T07:10:16;0.00;;;0.00;;
26359;SDS011;14063;41.426;13.854;2022-11-20T07:12:48;0.00;;;0.00;;
26359;SDS011;14063;41.426;13.854;2022-11-20T07:15:15;0.00;;;0.00;;
26359;SDS011;14063;41.426;13.854;2022-11-20T07:17:41;0.00;;;0.00;;
26359;SDS011;14063;41.426;13.854;2022-11-20T07:23:06;0.00;;;0.00;;
26359;SDS011;14063;41.426;13.854;2022-11-20T07:25:32;0.00;;;0.00;;
26359;SDS011;14063;41.426;13.854;2022-11-20T07:27:59;0.10;;;0.10;;
26359;SDS011;14063;41.426;13.854;2022-11-20T07:30:30;0.00;;;0.00;;
26359;SDS011;14063;41.426;13.854;2022-11-20T07:32:57;0.00;;;0.00;;
26359;SDS011;14063;41.426;13.854;2022-11-20T07:35:24;0.00;;;0.00;;
26359;SDS011;14063;41.426;13.854;2022-11-20T07:40:54;0.00;;;0.00;;
26359;SDS011;14063;41.426;13.854;2022-11-20T07:46:11;0.00;;;0.00;;
26359;SDS011;14063;41.426;13.854;2022-11-20T07:48:37;0.15;;;0.08;;
26359;SDS011;14063;41.426;13.854;2022-11-20T07:51:03;0.00;;;0.00;;
26359;SDS011;14063;41.426;13.854;2022-11-20T07:53:47;0.00;;;0.00;;
26359;SDS011;14063;41.426;13.854;2022-11-20T07:56:13;0.00;;;0.00;;
26359;SDS011;14063;41.426;13.854;2022-11-20T07:58:39;0.00;;;0.00;;
26359;SDS011;14063;41.426;13.854;2022-11-20T08:01:06;0.00;;;0.00;;
26359;SDS011;14063;41.426;13.854;2022-11-20T08:06:05;0.00;;;0.00;;
26359;SDS011;14063;41.426;13.854;2022-11-20T08:11:35;0.00;;;0.00;;
26359;SDS011;14063;41.426;13.854;2022-11-20T08:20:04;0.00;;;0.00;;
26359;SDS011;14063;41.426;13.854;2022-11-20T08:22:30;0.00;;;0.00;;
26359;SDS011;14063;41.426;13.854;2022-11-20T08:24:57;0.00;;;0.00;;
26359;SDS011;14063;41.426;13.854;2022-11-20T08:27:23;0.00;;;0.00;;
26359;SDS011;14063;41.426;13.854;2022-11-20T08:29:50;0.00;;;0.00;;
26359;SDS011;14063;41.426;13.854;2022-11-20T08:32:16;0.00;;;0.00;;
26359;SDS011;14063;41.426;13.854;2022-11-20T08:37:31;0.00;;;0.00;;
26359;SDS011;14063;41.426;13.854;2022-11-20T08:40:02;0.00;;;0.00;;
26359;SDS011;14063;41.426;13.854;2022-11-20T08:42:29;0.00;;;0.00;;
26359;SDS011;14063;41.426;13.854;2022-11-20T08:44:55;0.00;;;0.00;;
26359;SDS011;14063;41.426;13.854;2022-11-20T08:47:21;0.00;;;0.00;;
26359;SDS011;14063;41.426;13.854;2022-11-20T08:49:48;0.00;;;0.00;;
26359;SDS011;14063;41.426;13.854;2022-11-20T08:52:14;0.00;;;0.00;;
26359;SDS011;14063;41.426;13.854;2022-11-20T08:54:40;0.00;;;0.00;;
26359;SDS011;14063;41.426;13.854;2022-11-20T08:57:10;0.00;;;0.00;;
26359;SDS011;14063;41.426;13.854;2022-11-20T08:59:36;0.00;;;0.00;;
26359;SDS011;14063;41.426;13.854;2022-11-20T09:02:02;0.00;;;0.00;;
26359;SDS011;14063;41.426;13.854;2022-11-20T09:04:29;0.00;;;0.00;;
26359;SDS011;14063;41.426;13.854;2022-11-20T09:06:55;0.00;;;0.00;;
26359;SDS011;14063;41.426;13.854;2022-11-20T09:09:21;0.00;;;0.00;;
26359;SDS011;14063;41.426;13.854;2022-11-20T09:11:50;0.00;;;0.00;;
26359;SDS011;14063;41.426;13.854;2022-11-20T09:14:19;0.00;;;0.00;;
26359;SDS011;14063;41.426;13.854;2022-11-20T09:16:46;0.00;;;0.00;;
26359;SDS011;14063;41.426;13.854;2022-11-20T09:19:12;0.00;;;0.00;;
26359;SDS011;14063;41.426;13.854;2022-11-20T09:21:39;0.00;;;0.00;;
26359;SDS011;14063;41.426;13.854;2022-11-20T09:24:05;0.00;;;0.00;;
26359;SDS011;14063;41.426;13.854;2022-11-20T09:26:31;0.00;;;0.00;;
26359;SDS011;14063;41.426;13.854;2022-11-20T09:28:57;0.00;;;0.00;;
26359;SDS011;14063;41.426;13.854;2022-11-20T09:31:24;0.00;;;0.00;;
26359;SDS011;14063;41.426;13.854;2022-11-20T09:33:51;0.00;;;0.00;;
26359;SDS011;14063;41.426;13.854;2022-11-20T09:36:17;0.00;;;0.00;;
26359;SDS011;14063;41.426;13.854;2022-11-20T09:38:47;0.00;;;0.00;;
26359;SDS011;14063;41.426;13.854;2022-11-20T09:44:24;0.00;;;0.00;;
26359;SDS011;14063;41.426;13.854;2022-11-20T09:46:55;0.00;;;0.00;;
26359;SDS011;14063;41.426;13.854;2022-11-20T09:49:32;0.00;;;0.00;;
26359;SDS011;14063;41.426;13.854;2022-11-20T09:54:37;0.00;;;0.00;;
26359;SDS011;14063;41.426;13.854;2022-11-20T09:57:08;0.00;;;0.00;;
26359;SDS011;14063;41.426;13.854;2022-11-20T09:59:38;0.00;;;0.00;;
26359;SDS011;14063;41.426;13.854;2022-11-20T10:02:15;0.00;;;0.00;;
26359;SDS011;14063;41.426;13.854;2022-11-20T10:04:48;0.00;;;0.00;;
26359;SDS011;14063;41.426;13.854;2022-11-20T10:07:20;0.00;;;0.00;;
26359;SDS011;14063;41.426;13.854;2022-11-20T10:09:50;0.00;;;0.00;;
26359;SDS011;14063;41.426;13.854;2022-11-20T10:15:02;0.00;;;0.00;;
26359;SDS011;14063;41.426;13.854;2022-11-20T10:17:46;0.00;;;0.00;;
26359;SDS011;14063;41.426;13.854;2022-11-20T10:28:35;0.00;;;0.00;;
26359;SDS011;14063;41.426;13.854;2022-11-20T10:31:04;0.00;;;0.00;;
26359;SDS011;14063;41.426;13.854;2022-11-20T10:33:38;0.00;;;0.00;;
26359;SDS011;14063;41.426;13.854;2022-11-20T10:39:04;0.00;;;0.00;;
26359;SDS011;14063;41.426;13.854;2022-11-20T10:41:34;0.00;;;0.00;;
26359;SDS011;14063;41.426;13.854;2022-11-20T10:46:38;0.00;;;0.00;;
26359;SDS011;14063;41.426;13.854;2022-11-20T10:49:13;0.00;;;0.00;;
26359;SDS011;14063;41.426;13.854;2022-11-20T10:56:53;0.00;;;0.00;;
26359;SDS011;14063;41.426;13.854;2022-11-20T11:02:18;0.00;;;0.00;;
26359;SDS011;14063;41.426;13.854;2022-11-20T11:04:46;0.00;;;0.00;;
26359;SDS011;14063;41.426;13.854;2022-11-20T11:07:15;0.00;;;0.00;;
26359;SDS011;14063;41.426;13.854;2022-11-20T11:09:43;0.00;;;0.00;;
26359;SDS011;14063;41.426;13.854;2022-11-20T11:12:10;0.00;;;0.00;;
26359;SDS011;14063;41.426;13.854;2022-11-20T11:14:45;0.00;;;0.00;;
26359;SDS011;14063;41.426;13.854;2022-11-20T11:17:45;0.00;;;0.00;;
26359;SDS011;14063;41.426;13.854;2022-11-20T11:22:43;0.00;;;0.00;;
26359;SDS011;14063;41.426;13.854;2022-11-20T11:25:18;0.00;;;0.00;;
26359;SDS011;14063;41.426;13.854;2022-11-20T11:27:45;0.00;;;0.00;;
26359;SDS011;14063;41.426;13.854;2022-11-20T11:30:13;0.00;;;0.00;;
26359;SDS011;14063;41.426;13.854;2022-11-20T11:35:33;0.00;;;0.00;;
26359;SDS011;14063;41.426;13.854;2022-11-20T11:38:41;0.00;;;0.00;;
26359;SDS011;14063;41.426;13.854;2022-11-20T11:43:22;0.00;;;0.00;;
26359;SDS011;14063;41.426;13.854;2022-11-20T11:49:15;0.00;;;0.00;;
26359;SDS011;14063;41.426;13.854;2022-11-20T11:54:26;0.00;;;0.00;;
26359;SDS011;14063;41.426;13.854;2022-11-20T11:56:54;0.00;;;0.00;;
26359;SDS011;14063;41.426;13.854;2022-11-20T12:02:10;0.00;;;0.00;;
26359;SDS011;14063;41.426;13.854;2022-11-20T12:07:15;0.00;;;0.00;;
26359;SDS011;14063;41.426;13.854;2022-11-20T12:12:37;0.00;;;0.00;;
26359;SDS011;14063;41.426;13.854;2022-11-20T12:15:06;0.00;;;0.00;;
26359;SDS011;14063;41.426;13.854;2022-11-20T12:17:35;0.00;;;0.00;;
26359;SDS011;14063;41.426;13.854;2022-11-20T12:20:02;0.00;;;0.00;;
26359;SDS011;14063;41.426;13.854;2022-11-20T12:22:46;0.00;;;0.00;;
26359;SDS011;14063;41.426;13.854;2022-11-20T12:25:24;0.00;;;0.00;;
26359;SDS011;14063;41.426;13.854;2022-11-20T12:31:02;0.00;;;0.00;;
26359;SDS011;14063;41.426;13.854;2022-11-20T12:36:01;0.00;;;0.00;;
26359;SDS011;14063;41.426;13.854;2022-11-20T12:43:27;0.00;;;0.00;;
26359;SDS011;14063;41.426;13.854;2022-11-20T12:54:01;0.00;;;0.00;;
26359;SDS011;14063;41.426;13.854;2022-11-20T12:56:49;0.00;;;0.00;;
26359;SDS011;14063;41.426;13.854;2022-11-20T13:02:13;0.00;;;0.00;;
26359;SDS011;14063;41.426;13.854;2022-11-20T13:04:48;0.00;;;0.00;;
26359;SDS011;14063;41.426;13.854;2022-11-20T13:07:21;0.00;;;0.00;;
26359;SDS011;14063;41.426;13.854;2022-11-20T13:09:48;0.00;;;0.00;;
26359;SDS011;14063;41.426;13.854;2022-11-20T13:17:22;0.00;;;0.00;;
26359;SDS011;14063;41.426;13.854;2022-11-20T13:19:54;0.00;;;0.00;;
26359;SDS011;14063;41.426;13.854;2022-11-20T13:22:28;0.00;;;0.00;;
26359;SDS011;14063;41.426;13.854;2022-11-20T13:24:54;0.00;;;0.00;;
26359;SDS011;14063;41.426;13.854;2022-11-20T13:27:21;0.00;;;0.00;;
26359;SDS011;14063;41.426;13.854;2022-11-20T13:30:03;0.00;;;0.00;;
26359;SDS011;14063;41.426;13.854;2022-11-20T13:32:47;0.00;;;0.00;;
26359;SDS011;14063;41.426;13.854;2022-11-20T13:35:23;0.00;;;0.00;;
26359;SDS011;14063;41.426;13.854;2022-11-20T13:40:56;0.00;;;0.00;;
26359;SDS011;14063;41.426;13.854;2022-11-20T13:45:56;0.00;;;0.00;;
26359;SDS011;14063;41.426;13.854;2022-11-20T13:48:23;0.00;;;0.00;;
26359;SDS011;14063;41.426;13.854;2022-11-20T13:50:54;0.00;;;0.00;;
26359;SDS011;14063;41.426;13.854;2022-11-20T13:55:54;0.00;;;0.00;;
26359;SDS011;14063;41.426;13.854;2022-11-20T13:58:30;0.00;;;0.00;;
26359;SDS011;14063;41.426;13.854;2022-11-20T14:06:57;0.00;;;0.00;;
26359;SDS011;14063;41.426;13.854;2022-11-20T14:09:27;0.00;;;0.00;;
26359;SDS011;14063;41.426;13.854;2022-11-20T14:11:54;0.00;;;0.00;;
26359;SDS011;14063;41.426;13.854;2022-11-20T14:14:29;0.00;;;0.00;;
26359;SDS011;14063;41.426;13.854;2022-11-20T14:20:06;0.00;;;0.00;;
26359;SDS011;14063;41.426;13.854;2022-11-20T14:22:33;0.00;;;0.00;;
26359;SDS011;14063;41.426;13.854;2022-11-20T14:25:03;0.00;;;0.00;;
26359;SDS011;14063;41.426;13.854;2022-11-20T14:27:32;0.00;;;0.00;;
26359;SDS011;14063;41.426;13.854;2022-11-20T14:30:00;0.00;;;0.00;;
26359;SDS011;14063;41.426;13.854;2022-11-20T14:32:27;0.00;;;0.00;;
26359;SDS011;14063;41.426;13.854;2022-11-20T14:34:54;0.00;;;0.00;;
26359;SDS011;14063;41.426;13.854;2022-11-20T14:37:21;0.00;;;0.00;;
26359;SDS011;14063;41.426;13.854;2022-11-20T14:39:50;0.00;;;0.00;;
26359;SDS011;14063;41.426;13.854;2022-11-20T14:42:27;0.00;;;0.00;;
26359;SDS011;14063;41.426;13.854;2022-11-20T14:44:56;0.00;;;0.00;;
26359;SDS011;14063;41.426;13.854;2022-11-20T14:47:24;0.00;;;0.00;;
26359;SDS011;14063;41.426;13.854;2022-11-20T14:49:51;0.00;;;0.00;;
26359;SDS011;14063;41.426;13.854;2022-11-20T14:52:22;0.00;;;0.00;;
26359;SDS011;14063;41.426;13.854;2022-11-20T14:54:55;0.00;;;0.00;;
26359;SDS011;14063;41.426;13.854;2022-11-20T14:59:51;0.00;;;0.00;;
26359;SDS011;14063;41.426;13.854;2022-11-20T15:02:18;0.00;;;0.00;;
26359;SDS011;14063;41.426;13.854;2022-11-20T15:04:49;0.00;;;0.00;;
26359;SDS011;14063;41.426;13.854;2022-11-20T15:07:36;0.00;;;0.00;;
26359;SDS011;14063;41.426;13.854;2022-11-20T15:13:15;0.00;;;0.00;;
26359;SDS011;14063;41.426;13.854;2022-11-20T15:18:13;0.00;;;0.00;;
26359;SDS011;14063;41.426;13.854;2022-11-20T15:20:40;0.00;;;0.00;;
26359;SDS011;14063;41.426;13.854;2022-11-20T15:23:15;0.00;;;0.00;;
26359;SDS011;14063;41.426;13.854;2022-11-20T15:25:46;0.00;;;0.00;;
26359;SDS011;14063;41.426;13.854;2022-11-20T15:28:17;0.00;;;0.00;;
26359;SDS011;14063;41.426;13.854;2022-11-20T15:30:49;0.00;;;0.00;;
26359;SDS011;14063;41.426;13.854;2022-11-20T15:33:19;0.00;;;0.00;;
26359;SDS011;14063;41.426;13.854;2022-11-20T15:35:51;0.00;;;0.00;;
26359;SDS011;14063;41.426;13.854;2022-11-20T15:38:18;0.00;;;0.00;;
26359;SDS011;14063;41.426;13.854;2022-11-20T15:40:45;0.00;;;0.00;;
26359;SDS011;14063;41.426;13.854;2022-11-20T15:43:12;0.00;;;0.00;;
26359;SDS011;14063;41.426;13.854;2022-11-20T15:45:43;0.00;;;0.00;;
26359;SDS011;14063;41.426;13.854;2022-11-20T15:53:29;0.00;;;0.00;;
26359;SDS011;14063;41.426;13.854;2022-11-20T15:55:57;0.00;;;0.00;;
26359;SDS011;14063;41.426;13.854;2022-11-20T15:58:25;0.00;;;0.00;;
26359;SDS011;14063;41.426;13.854;2022-11-20T16:00:52;0.00;;;0.00;;
26359;SDS011;14063;41.426;13.854;2022-11-20T16:03:22;0.10;;;0.10;;
26359;SDS011;14063;41.426;13.854;2022-11-20T16:05:49;0.05;;;0.05;;
26359;SDS011;14063;41.426;13.854;2022-11-20T16:08:15;0.00;;;0.00;;
26359;SDS011;14063;41.426;13.854;2022-11-20T16:10:41;0.00;;;0.00;;
26359;SDS011;14063;41.426;13.854;2022-11-20T16:13:12;0.00;;;0.00;;
26359;SDS011;14063;41.426;13.854;2022-11-20T16:15:58;0.00;;;0.00;;
26359;SDS011;14063;41.426;13.854;2022-11-20T16:18:25;0.00;;;0.00;;
26359;SDS011;14063;41.426;13.854;2022-11-20T16:22:36;11.32;;;8.70;;
26359;SDS011;14063;41.426;13.854;2022-11-20T16:25:03;3.83;;;2.80;;
26359;SDS011;14063;41.426;13.854;2022-11-20T16:27:29;9.50;;;5.82;;
26359;SDS011;14063;41.426;13.854;2022-11-20T16:29:56;26.92;;;23.17;;
26359;SDS011;14063;41.426;13.854;2022-11-20T16:32:22;5.82;;;5.32;;
26359;SDS011;14063;41.426;13.854;2022-11-20T16:34:49;11.80;;;10.68;;
26359;SDS011;14063;41.426;13.854;2022-11-20T16:37:15;26.27;;;23.50;;
26359;SDS011;14063;41.426;13.854;2022-11-20T16:39:41;32.85;;;24.27;;
26359;SDS011;14063;41.426;13.854;2022-11-20T16:42:07;46.83;;;26.95;;
26359;SDS011;14063;41.426;13.854;2022-11-20T16:44:34;73.47;;;52.30;;
26359;SDS011;14063;41.426;13.854;2022-11-20T16:47:00;97.47;;;50.85;;
26359;SDS011;14063;41.426;13.854;2022-11-20T16:49:27;266.60;;;83.90;;
26359;SDS011;14063;41.426;13.854;2022-11-20T16:51:53;258.25;;;86.82;;
26359;SDS011;14063;41.426;13.854;2022-11-20T16:54:19;250.15;;;85.38;;
26359;SDS011;14063;41.426;13.854;2022-11-20T16:56:45;218.00;;;91.88;;
26359;SDS011;14063;41.426;13.854;2022-11-20T16:59:12;335.73;;;109.88;;
26359;SDS011;14063;41.426;13.854;2022-11-20T17:01:39;284.73;;;76.83;;
26359;SDS011;14063;41.426;13.854;2022-11-20T17:04:08;97.60;;;59.05;;
26359;SDS011;14063;41.426;13.854;2022-11-20T17:06:36;183.98;;;81.72;;
26359;SDS011;14063;41.426;13.854;2022-11-20T17:09:04;228.57;;;92.97;;
26359;SDS011;14063;41.426;13.854;2022-11-20T17:11:33;100.80;;;53.97;;
26359;SDS011;14063;41.426;13.854;2022-11-20T17:14:00;179.52;;;81.50;;
26359;SDS011;14063;41.426;13.854;2022-11-20T17:16:29;15.60;;;11.77;;
26359;SDS011;14063;41.426;13.854;2022-11-20T17:18:56;161.77;;;54.78;;
26359;SDS011;14063;41.426;13.854;2022-11-20T17:21:23;148.32;;;71.95;;
26359;SDS011;14063;41.426;13.854;2022-11-20T17:23:49;138.85;;;59.05;;
26359;SDS011;14063;41.426;13.854;2022-11-20T17:26:19;122.55;;;50.25;;
26359;SDS011;14063;41.426;13.854;2022-11-20T17:28:56;157.20;;;56.28;;
26359;SDS011;14063;41.426;13.854;2022-11-20T17:31:23;7.45;;;4.55;;
26359;SDS011;14063;41.426;13.854;2022-11-20T17:33:50;185.15;;;76.60;;
26359;SDS011;14063;41.426;13.854;2022-11-20T17:36:17;300.02;;;89.35;;
26359;SDS011;14063;41.426;13.854;2022-11-20T17:38:44;176.35;;;58.22;;
26359;SDS011;14063;41.426;13.854;2022-11-20T17:41:11;0.45;;;0.40;;
26359;SDS011;14063;41.426;13.854;2022-11-20T17:43:38;228.48;;;91.43;;
26359;SDS011;14063;41.426;13.854;2022-11-20T17:46:08;0.13;;;0.00;;
26359;SDS011;14063;41.426;13.854;2022-11-20T17:48:35;3.00;;;0.68;;
26359;SDS011;14063;41.426;13.854;2022-11-20T17:51:02;0.47;;;0.10;;
26359;SDS011;14063;41.426;13.854;2022-11-20T17:53:32;0.10;;;0.00;;
26359;SDS011;14063;41.426;13.854;2022-11-20T17:55:58;4.05;;;0.63;;
26359;SDS011;14063;41.426;13.854;2022-11-20T17:58:43;0.03;;;0.00;;
26359;SDS011;14063;41.426;13.854;2022-11-20T18:01:10;0.00;;;0.00;;
26359;SDS011;14063;41.426;13.854;2022-11-20T18:03:36;2.90;;;0.52;;
26359;SDS011;14063;41.426;13.854;2022-11-20T18:08:44;0.98;;;0.10;;
26359;SDS011;14063;41.426;13.854;2022-11-20T18:11:11;2.00;;;0.32;;